Terminal Aerodrome Forecast
Issued by NWS

Home | Current Version | Previous Version | Text Only | Print | Product List | Glossary On
Versions: 1 2 3 4 5 6 7 8 9 10 11 12
000
FTUS42 TJSJ 311137
TAFKPK
TAF
TKPK 311137Z 3112/0112 06010KT P6SM -SHRA VCSH SCT018 SCT045
      TEMPO 3112/3114 -SHRA BKN018
     FM311400 07015KT P6SM SCT025 SCT050
     FM312300 06014KT P6SM FEW022=

USA.gov is the U.S. government's official web portal to all federal, state and local government web resources and services.